Hopedale, Ohio
Current Conditions -  °F | °C
As of 8:59 AM on Friday 24 Oct 2014 (Local Time) from KHLG Reporting Station
Haze Haze  
Wind Chill:   Ceiling: 200
Heat Index:   Visibility: 0.75mi
Dew Point:   Wind: 0mph
Humidity: 96%   Direction: NA
Pressure: 30.11"   Gusts: NA
Location:  40.33°N, 80.9°W
Report Text: KHLG 241259Z 00000KT 3/4SM R03/1800VP6000FT BR VV002 03/02 A3011 RMK AO2 T00280022
Loading
Personal Weather Stations






























Interactive Weather Map
Tropical Storm Tracking
New forecast layout! Learn more

10-Day Weather Forecast

Advertisements
Track Severe Weather on mobile